sensor_id;sensor_type;location;lat;lon;timestamp;temperature;humidity
19224;DHT22;9746;47.180;9.776;2022-11-20T07:02:52;4.80;99.90
19224;DHT22;9746;47.180;9.776;2022-11-20T07:05:20;4.90;99.90
19224;DHT22;9746;47.180;9.776;2022-11-20T07:07:50;4.90;99.90
19224;DHT22;9746;47.180;9.776;2022-11-20T07:10:17;4.90;99.90
19224;DHT22;9746;47.180;9.776;2022-11-20T07:12:49;5.00;99.90
19224;DHT22;9746;47.180;9.776;2022-11-20T07:15:17;4.90;99.90
19224;DHT22;9746;47.180;9.776;2022-11-20T07:17:45;4.90;99.90
19224;DHT22;9746;47.180;9.776;2022-11-20T07:20:14;4.80;99.90
19224;DHT22;9746;47.180;9.776;2022-11-20T07:22:42;4.80;99.90
19224;DHT22;9746;47.180;9.776;2022-11-20T07:25:10;4.80;99.90
19224;DHT22;9746;47.180;9.776;2022-11-20T07:27:37;4.80;99.90
19224;DHT22;9746;47.180;9.776;2022-11-20T07:30:05;4.90;99.90
19224;DHT22;9746;47.180;9.776;2022-11-20T07:32:33;5.00;99.90
19224;DHT22;9746;47.180;9.776;2022-11-20T07:35:00;5.00;99.90
19224;DHT22;9746;47.180;9.776;2022-11-20T07:37:29;5.10;99.90
19224;DHT22;9746;47.180;9.776;2022-11-20T07:39:56;5.20;99.90
19224;DHT22;9746;47.180;9.776;2022-11-20T07:42:24;5.30;99.90
19224;DHT22;9746;47.180;9.776;2022-11-20T07:44:51;5.40;99.90
19224;DHT22;9746;47.180;9.776;2022-11-20T07:47:18;5.40;99.90
19224;DHT22;9746;47.180;9.776;2022-11-20T07:49:46;5.50;99.90
19224;DHT22;9746;47.180;9.776;2022-11-20T07:52:14;5.60;99.90
19224;DHT22;9746;47.180;9.776;2022-11-20T07:54:42;5.60;99.90
19224;DHT22;9746;47.180;9.776;2022-11-20T07:57:10;5.70;99.90
19224;DHT22;9746;47.180;9.776;2022-11-20T07:59:37;5.70;99.90
19224;DHT22;9746;47.180;9.776;2022-11-20T08:02:05;5.80;99.90
19224;DHT22;9746;47.180;9.776;2022-11-20T08:04:32;5.80;99.90
19224;DHT22;9746;47.180;9.776;2022-11-20T08:06:59;5.90;99.90
19224;DHT22;9746;47.180;9.776;2022-11-20T08:09:27;5.90;99.90
19224;DHT22;9746;47.180;9.776;2022-11-20T08:11:56;6.00;99.90
19224;DHT22;9746;47.180;9.776;2022-11-20T08:14:41;6.00;99.90
19224;DHT22;9746;47.180;9.776;2022-11-20T08:17:08;6.10;99.90
19224;DHT22;9746;47.180;9.776;2022-11-20T08:19:35;6.00;99.90
19224;DHT22;9746;47.180;9.776;2022-11-20T08:22:03;6.00;99.90
19224;DHT22;9746;47.180;9.776;2022-11-20T08:24:30;6.00;99.90
19224;DHT22;9746;47.180;9.776;2022-11-20T08:26:59;6.00;99.90
19224;DHT22;9746;47.180;9.776;2022-11-20T08:29:27;6.10;99.90
19224;DHT22;9746;47.180;9.776;2022-11-20T08:31:54;6.30;99.90
19224;DHT22;9746;47.180;9.776;2022-11-20T08:34:22;6.50;99.90
19224;DHT22;9746;47.180;9.776;2022-11-20T08:36:50;6.60;99.90
19224;DHT22;9746;47.180;9.776;2022-11-20T08:39:17;6.60;99.90
19224;DHT22;9746;47.180;9.776;2022-11-20T08:41:44;6.60;99.90
19224;DHT22;9746;47.180;9.776;2022-11-20T08:44:14;6.70;99.90
19224;DHT22;9746;47.180;9.776;2022-11-20T08:46:42;6.70;99.90
19224;DHT22;9746;47.180;9.776;2022-11-20T08:49:12;6.70;99.90
19224;DHT22;9746;47.180;9.776;2022-11-20T08:51:41;6.70;99.90
19224;DHT22;9746;47.180;9.776;2022-11-20T08:54:08;6.80;99.90
19224;DHT22;9746;47.180;9.776;2022-11-20T08:56:36;7.00;99.90
19224;DHT22;9746;47.180;9.776;2022-11-20T08:59:03;7.30;99.90
19224;DHT22;9746;47.180;9.776;2022-11-20T09:01:32;7.70;99.90
19224;DHT22;9746;47.180;9.776;2022-11-20T09:03:59;8.20;99.90
19224;DHT22;9746;47.180;9.776;2022-11-20T09:06:26;8.40;99.90
19224;DHT22;9746;47.180;9.776;2022-11-20T09:08:54;8.60;99.90
19224;DHT22;9746;47.180;9.776;2022-11-20T09:11:22;8.90;99.90
19224;DHT22;9746;47.180;9.776;2022-11-20T09:13:50;9.10;99.90
19224;DHT22;9746;47.180;9.776;2022-11-20T09:16:17;9.20;99.90
19224;DHT22;9746;47.180;9.776;2022-11-20T09:18:49;9.20;99.90
19224;DHT22;9746;47.180;9.776;2022-11-20T09:21:16;9.10;99.90
19224;DHT22;9746;47.180;9.776;2022-11-20T09:23:45;9.00;99.90
19224;DHT22;9746;47.180;9.776;2022-11-20T09:26:13;9.00;99.90
19224;DHT22;9746;47.180;9.776;2022-11-20T09:28:44;9.30;99.90
19224;DHT22;9746;47.180;9.776;2022-11-20T09:31:19;9.40;99.90
19224;DHT22;9746;47.180;9.776;2022-11-20T09:33:49;9.50;99.90
19224;DHT22;9746;47.180;9.776;2022-11-20T09:36:17;9.60;99.90
19224;DHT22;9746;47.180;9.776;2022-11-20T09:38:46;9.70;99.90
19224;DHT22;9746;47.180;9.776;2022-11-20T09:41:31;9.60;99.90
19224;DHT22;9746;47.180;9.776;2022-11-20T09:44:07;9.70;99.90
19224;DHT22;9746;47.180;9.776;2022-11-20T09:46:43;9.70;99.90
19224;DHT22;9746;47.180;9.776;2022-11-20T09:49:26;9.70;99.90
19224;DHT22;9746;47.180;9.776;2022-11-20T09:51:58;9.80;99.90
19224;DHT22;9746;47.180;9.776;2022-11-20T09:54:30;9.80;99.90
19224;DHT22;9746;47.180;9.776;2022-11-20T09:57:00;9.80;99.90
19224;DHT22;9746;47.180;9.776;2022-11-20T09:59:40;9.60;99.90
19224;DHT22;9746;47.180;9.776;2022-11-20T10:02:16;9.60;99.90
19224;DHT22;9746;47.180;9.776;2022-11-20T10:04:49;9.60;99.90
19224;DHT22;9746;47.180;9.776;2022-11-20T10:07:21;9.50;99.90
19224;DHT22;9746;47.180;9.776;2022-11-20T10:09:52;9.60;99.90
19224;DHT22;9746;47.180;9.776;2022-11-20T10:12:25;9.70;99.90
19224;DHT22;9746;47.180;9.776;2022-11-20T10:15:09;10.00;99.90
19224;DHT22;9746;47.180;9.776;2022-11-20T10:17:51;10.60;99.90
19224;DHT22;9746;47.180;9.776;2022-11-20T10:20:29;11.40;99.90
19224;DHT22;9746;47.180;9.776;2022-11-20T10:23:09;12.10;99.90
19224;DHT22;9746;47.180;9.776;2022-11-20T10:25:42;12.80;99.90
19224;DHT22;9746;47.180;9.776;2022-11-20T10:28:34;13.50;99.90
19224;DHT22;9746;47.180;9.776;2022-11-20T10:31:09;14.10;99.90
19224;DHT22;9746;47.180;9.776;2022-11-20T10:33:41;14.30;99.90
19224;DHT22;9746;47.180;9.776;2022-11-20T10:36:15;14.30;99.90
19224;DHT22;9746;47.180;9.776;2022-11-20T10:38:47;14.30;99.90
19224;DHT22;9746;47.180;9.776;2022-11-20T10:41:21;14.00;99.90
19224;DHT22;9746;47.180;9.776;2022-11-20T10:44:01;13.70;99.90
19224;DHT22;9746;47.180;9.776;2022-11-20T10:46:37;13.50;99.90
19224;DHT22;9746;47.180;9.776;2022-11-20T10:49:14;13.10;99.90
19224;DHT22;9746;47.180;9.776;2022-11-20T10:51:54;12.80;99.90
19224;DHT22;9746;47.180;9.776;2022-11-20T10:54:32;12.60;99.90
19224;DHT22;9746;47.180;9.776;2022-11-20T10:57:07;12.20;99.90
19224;DHT22;9746;47.180;9.776;2022-11-20T10:59:55;11.90;99.90
19224;DHT22;9746;47.180;9.776;2022-11-20T11:02:34;11.80;99.90
19224;DHT22;9746;47.180;9.776;2022-11-20T11:05:17;11.70;99.90
19224;DHT22;9746;47.180;9.776;2022-11-20T11:07:49;11.70;99.90
19224;DHT22;9746;47.180;9.776;2022-11-20T11:10:19;11.70;99.90
19224;DHT22;9746;47.180;9.776;2022-11-20T11:12:48;11.70;99.90
19224;DHT22;9746;47.180;9.776;2022-11-20T11:15:27;11.70;99.90
19224;DHT22;9746;47.180;9.776;2022-11-20T11:18:00;11.60;99.90
19224;DHT22;9746;47.180;9.776;2022-11-20T11:20:27;11.50;99.90
19224;DHT22;9746;47.180;9.776;2022-11-20T11:22:57;11.40;99.90
19224;DHT22;9746;47.180;9.776;2022-11-20T11:25:28;11.20;99.90
19224;DHT22;9746;47.180;9.776;2022-11-20T11:27:58;11.10;99.90
19224;DHT22;9746;47.180;9.776;2022-11-20T11:30:30;11.20;99.90
19224;DHT22;9746;47.180;9.776;2022-11-20T11:33:11;11.20;99.90
19224;DHT22;9746;47.180;9.776;2022-11-20T11:35:45;11.10;99.90
19224;DHT22;9746;47.180;9.776;2022-11-20T11:38:19;11.00;99.90
19224;DHT22;9746;47.180;9.776;2022-11-20T11:40:48;11.00;99.90
19224;DHT22;9746;47.180;9.776;2022-11-20T11:43:19;10.90;99.90
19224;DHT22;9746;47.180;9.776;2022-11-20T11:46:30;10.90;99.90
19224;DHT22;9746;47.180;9.776;2022-11-20T11:49:08;10.80;99.90
19224;DHT22;9746;47.180;9.776;2022-11-20T11:51:45;10.80;99.90
19224;DHT22;9746;47.180;9.776;2022-11-20T11:54:24;10.70;99.90
19224;DHT22;9746;47.180;9.776;2022-11-20T11:56:53;10.70;99.90
19224;DHT22;9746;47.180;9.776;2022-11-20T11:59:33;10.60;99.90
19224;DHT22;9746;47.180;9.776;2022-11-20T12:02:15;10.50;99.90
19224;DHT22;9746;47.180;9.776;2022-11-20T12:04:53;10.40;99.90
19224;DHT22;9746;47.180;9.776;2022-11-20T12:07:32;10.30;99.90
19224;DHT22;9746;47.180;9.776;2022-11-20T12:10:15;10.30;99.90
19224;DHT22;9746;47.180;9.776;2022-11-20T12:12:52;10.70;99.90
19224;DHT22;9746;47.180;9.776;2022-11-20T12:15:29;11.70;99.90
19224;DHT22;9746;47.180;9.776;2022-11-20T12:17:57;12.90;99.90
19224;DHT22;9746;47.180;9.776;2022-11-20T12:20:29;14.10;99.90
19224;DHT22;9746;47.180;9.776;2022-11-20T12:23:04;15.20;99.90
19224;DHT22;9746;47.180;9.776;2022-11-20T12:25:38;16.30;99.90
19224;DHT22;9746;47.180;9.776;2022-11-20T12:28:28;17.00;99.90
19224;DHT22;9746;47.180;9.776;2022-11-20T12:31:18;16.90;99.90
19224;DHT22;9746;47.180;9.776;2022-11-20T12:36:50;15.40;99.90
19224;DHT22;9746;47.180;9.776;2022-11-20T12:39:40;14.70;99.90
19224;DHT22;9746;47.180;9.776;2022-11-20T12:42:37;14.10;99.90
19224;DHT22;9746;47.180;9.776;2022-11-20T12:48:31;13.50;99.90
19224;DHT22;9746;47.180;9.776;2022-11-20T12:54:21;13.60;99.90
19224;DHT22;9746;47.180;9.776;2022-11-20T12:56:57;13.10;99.90
19224;DHT22;9746;47.180;9.776;2022-11-20T12:59:53;12.60;99.90
19224;DHT22;9746;47.180;9.776;2022-11-20T13:02:41;12.20;99.90
19224;DHT22;9746;47.180;9.776;2022-11-20T13:05:21;12.10;99.90
19224;DHT22;9746;47.180;9.776;2022-11-20T13:07:53;11.80;99.90
19224;DHT22;9746;47.180;9.776;2022-11-20T13:10:29;11.60;99.90
19224;DHT22;9746;47.180;9.776;2022-11-20T13:13:01;11.60;99.90
19224;DHT22;9746;47.180;9.776;2022-11-20T13:15:47;11.50;99.90
19224;DHT22;9746;47.180;9.776;2022-11-20T13:18:17;11.30;99.90
19224;DHT22;9746;47.180;9.776;2022-11-20T13:21:15;11.10;99.90
19224;DHT22;9746;47.180;9.776;2022-11-20T13:23:43;11.10;99.90
19224;DHT22;9746;47.180;9.776;2022-11-20T13:26:47;11.00;99.90
19224;DHT22;9746;47.180;9.776;2022-11-20T13:29:26;10.90;99.90
19224;DHT22;9746;47.180;9.776;2022-11-20T13:32:04;10.80;99.90
19224;DHT22;9746;47.180;9.776;2022-11-20T13:34:34;10.70;99.90
19224;DHT22;9746;47.180;9.776;2022-11-20T13:37:03;10.60;99.90
19224;DHT22;9746;47.180;9.776;2022-11-20T13:39:34;10.50;99.90
19224;DHT22;9746;47.180;9.776;2022-11-20T13:42:18;10.40;99.90
19224;DHT22;9746;47.180;9.776;2022-11-20T13:44:53;10.40;99.90
19224;DHT22;9746;47.180;9.776;2022-11-20T13:47:25;10.30;99.90
19224;DHT22;9746;47.180;9.776;2022-11-20T13:49:57;10.40;99.90
19224;DHT22;9746;47.180;9.776;2022-11-20T13:52:39;10.40;99.90
19224;DHT22;9746;47.180;9.776;2022-11-20T13:55:26;10.50;99.90
19224;DHT22;9746;47.180;9.776;2022-11-20T13:58:11;10.30;99.90
19224;DHT22;9746;47.180;9.776;2022-11-20T14:00:47;10.20;99.90
19224;DHT22;9746;47.180;9.776;2022-11-20T14:03:20;10.20;99.90
19224;DHT22;9746;47.180;9.776;2022-11-20T14:05:59;10.10;99.90
19224;DHT22;9746;47.180;9.776;2022-11-20T14:08:43;10.00;99.90
19224;DHT22;9746;47.180;9.776;2022-11-20T14:11:16;10.00;99.90
19224;DHT22;9746;47.180;9.776;2022-11-20T14:14:00;9.90;99.90
19224;DHT22;9746;47.180;9.776;2022-11-20T14:16:30;9.80;99.90
19224;DHT22;9746;47.180;9.776;2022-11-20T14:19:24;9.70;99.90
19224;DHT22;9746;47.180;9.776;2022-11-20T14:21:53;9.70;99.90
19224;DHT22;9746;47.180;9.776;2022-11-20T14:24:22;9.60;99.90
19224;DHT22;9746;47.180;9.776;2022-11-20T14:26:51;9.50;99.90
19224;DHT22;9746;47.180;9.776;2022-11-20T14:29:20;9.40;99.90
19224;DHT22;9746;47.180;9.776;2022-11-20T14:31:52;9.30;99.90
19224;DHT22;9746;47.180;9.776;2022-11-20T14:34:24;9.20;99.90
19224;DHT22;9746;47.180;9.776;2022-11-20T14:36:55;9.10;99.90
19224;DHT22;9746;47.180;9.776;2022-11-20T14:39:30;8.90;99.90
19224;DHT22;9746;47.180;9.776;2022-11-20T14:41:58;8.90;99.90
19224;DHT22;9746;47.180;9.776;2022-11-20T14:44:27;8.80;99.90
19224;DHT22;9746;47.180;9.776;2022-11-20T14:46:56;8.70;99.90
19224;DHT22;9746;47.180;9.776;2022-11-20T14:49:25;8.60;99.90
19224;DHT22;9746;47.180;9.776;2022-11-20T14:51:59;8.60;99.90
19224;DHT22;9746;47.180;9.776;2022-11-20T14:54:28;8.50;99.90
19224;DHT22;9746;47.180;9.776;2022-11-20T14:56:57;8.40;99.90
19224;DHT22;9746;47.180;9.776;2022-11-20T14:59:26;8.30;99.90
19224;DHT22;9746;47.180;9.776;2022-11-20T15:01:56;8.20;99.90
19224;DHT22;9746;47.180;9.776;2022-11-20T15:04:30;8.20;99.90
19224;DHT22;9746;47.180;9.776;2022-11-20T15:06:59;8.10;99.90
19224;DHT22;9746;47.180;9.776;2022-11-20T15:09:27;8.00;99.90
19224;DHT22;9746;47.180;9.776;2022-11-20T15:11:58;7.90;99.90
19224;DHT22;9746;47.180;9.776;2022-11-20T15:14:28;7.80;99.90
19224;DHT22;9746;47.180;9.776;2022-11-20T15:16:59;7.70;99.90
19224;DHT22;9746;47.180;9.776;2022-11-20T15:19:29;7.60;99.90
19224;DHT22;9746;47.180;9.776;2022-11-20T15:21:56;7.50;99.90
19224;DHT22;9746;47.180;9.776;2022-11-20T15:24:23;7.20;99.90
19224;DHT22;9746;47.180;9.776;2022-11-20T15:26:52;7.00;99.90
19224;DHT22;9746;47.180;9.776;2022-11-20T15:29:20;6.80;99.90
19224;DHT22;9746;47.180;9.776;2022-11-20T15:31:56;6.70;99.90
19224;DHT22;9746;47.180;9.776;2022-11-20T15:34:23;6.60;99.90
19224;DHT22;9746;47.180;9.776;2022-11-20T15:36:52;6.60;99.90
19224;DHT22;9746;47.180;9.776;2022-11-20T15:39:20;6.60;99.90
19224;DHT22;9746;47.180;9.776;2022-11-20T15:41:48;6.50;99.90
19224;DHT22;9746;47.180;9.776;2022-11-20T15:44:15;6.40;99.90
19224;DHT22;9746;47.180;9.776;2022-11-20T15:46:43;6.30;99.90
19224;DHT22;9746;47.180;9.776;2022-11-20T15:49:14;6.20;99.90
19224;DHT22;9746;47.180;9.776;2022-11-20T15:51:44;6.00;99.90
19224;DHT22;9746;47.180;9.776;2022-11-20T15:54:16;6.00;99.90
19224;DHT22;9746;47.180;9.776;2022-11-20T15:56:45;5.70;99.90
19224;DHT22;9746;47.180;9.776;2022-11-20T15:59:13;5.70;99.90
19224;DHT22;9746;47.180;9.776;2022-11-20T16:01:42;5.60;99.90
19224;DHT22;9746;47.180;9.776;2022-11-20T16:04:11;5.50;99.90
19224;DHT22;9746;47.180;9.776;2022-11-20T16:06:47;5.50;99.90
19224;DHT22;9746;47.180;9.776;2022-11-20T16:09:15;5.60;99.90
19224;DHT22;9746;47.180;9.776;2022-11-20T16:11:49;5.60;99.90
19224;DHT22;9746;47.180;9.776;2022-11-20T16:14:17;5.70;99.90
19224;DHT22;9746;47.180;9.776;2022-11-20T16:17:03;5.80;99.90
19224;DHT22;9746;47.180;9.776;2022-11-20T16:19:30;5.80;99.90
19224;DHT22;9746;47.180;9.776;2022-11-20T16:21:58;5.80;99.90
19224;DHT22;9746;47.180;9.776;2022-11-20T16:24:29;5.90;99.90
19224;DHT22;9746;47.180;9.776;2022-11-20T16:27:04;5.80;99.90
19224;DHT22;9746;47.180;9.776;2022-11-20T16:29:31;5.80;99.90
19224;DHT22;9746;47.180;9.776;2022-11-20T16:31:58;5.70;99.90
19224;DHT22;9746;47.180;9.776;2022-11-20T16:34:26;5.70;99.90
19224;DHT22;9746;47.180;9.776;2022-11-20T16:36:53;5.70;99.90
19224;DHT22;9746;47.180;9.776;2022-11-20T16:39:21;5.70;99.90
19224;DHT22;9746;47.180;9.776;2022-11-20T16:42:04;5.70;99.90
19224;DHT22;9746;47.180;9.776;2022-11-20T16:44:32;5.70;99.90
19224;DHT22;9746;47.180;9.776;2022-11-20T16:47:03;5.70;99.90
19224;DHT22;9746;47.180;9.776;2022-11-20T16:49:30;5.70;99.90
19224;DHT22;9746;47.180;9.776;2022-11-20T16:51:59;5.60;99.90
19224;DHT22;9746;47.180;9.776;2022-11-20T16:54:27;5.60;99.90
19224;DHT22;9746;47.180;9.776;2022-11-20T16:57:01;5.50;99.90
19224;DHT22;9746;47.180;9.776;2022-11-20T16:59:30;5.60;99.90
19224;DHT22;9746;47.180;9.776;2022-11-20T17:01:57;5.50;99.90
19224;DHT22;9746;47.180;9.776;2022-11-20T17:04:25;5.50;99.90
19224;DHT22;9746;47.180;9.776;2022-11-20T17:09:57;5.50;99.90
19224;DHT22;9746;47.180;9.776;2022-11-20T17:12:26;5.50;99.90
19224;DHT22;9746;47.180;9.776;2022-11-20T17:14:55;5.50;99.90
19224;DHT22;9746;47.180;9.776;2022-11-20T17:17:30;5.50;99.90
19224;DHT22;9746;47.180;9.776;2022-11-20T17:19:59;5.50;99.90
19224;DHT22;9746;47.180;9.776;2022-11-20T17:22:27;5.50;99.90
19224;DHT22;9746;47.180;9.776;2022-11-20T17:24:54;5.50;99.90
19224;DHT22;9746;47.180;9.776;2022-11-20T17:27:28;5.50;99.90
19224;DHT22;9746;47.180;9.776;2022-11-20T17:29:56;5.50;99.90
19224;DHT22;9746;47.180;9.776;2022-11-20T17:32:25;5.50;99.90
19224;DHT22;9746;47.180;9.776;2022-11-20T17:34:52;5.40;99.90
19224;DHT22;9746;47.180;9.776;2022-11-20T17:37:27;5.40;99.90
19224;DHT22;9746;47.180;9.776;2022-11-20T17:39:55;5.40;99.90
19224;DHT22;9746;47.180;9.776;2022-11-20T17:42:29;5.50;99.90
19224;DHT22;9746;47.180;9.776;2022-11-20T17:45:03;5.50;99.90
19224;DHT22;9746;47.180;9.776;2022-11-20T17:47:34;5.50;99.90
19224;DHT22;9746;47.180;9.776;2022-11-20T17:50:02;5.50;99.90
19224;DHT22;9746;47.180;9.776;2022-11-20T17:52:30;5.50;99.90
19224;DHT22;9746;47.180;9.776;2022-11-20T17:54:58;5.50;99.90
19224;DHT22;9746;47.180;9.776;2022-11-20T17:57:25;5.40;99.90
19224;DHT22;9746;47.180;9.776;2022-11-20T18:00:15;5.40;99.90
19224;DHT22;9746;47.180;9.776;2022-11-20T18:02:43;5.40;99.90
19224;DHT22;9746;47.180;9.776;2022-11-20T18:05:10;5.30;99.90
19224;DHT22;9746;47.180;9.776;2022-11-20T18:07:44;5.30;99.90
19224;DHT22;9746;47.180;9.776;2022-11-20T18:10:11;5.30;99.90
19224;DHT22;9746;47.180;9.776;2022-11-20T18:12:39;5.20;99.90
19224;DHT22;9746;47.180;9.776;2022-11-20T18:15:07;5.20;99.90
19224;DHT22;9746;47.180;9.776;2022-11-20T18:17:36;5.30;99.90
19224;DHT22;9746;47.180;9.776;2022-11-20T18:20:05;5.30;99.90
19224;DHT22;9746;47.180;9.776;2022-11-20T18:22:36;5.30;99.90
19224;DHT22;9746;47.180;9.776;2022-11-20T18:25:04;5.30;99.90
19224;DHT22;9746;47.180;9.776;2022-11-20T18:27:33;5.40;99.90
19224;DHT22;9746;47.180;9.776;2022-11-20T18:30:00;5.40;99.90
19224;DHT22;9746;47.180;9.776;2022-11-20T18:32:30;5.50;99.90
19224;DHT22;9746;47.180;9.776;2022-11-20T18:34:59;5.40;99.90
19224;DHT22;9746;47.180;9.776;2022-11-20T18:37:30;5.40;99.90
19224;DHT22;9746;47.180;9.776;2022-11-20T18:39:57;5.40;99.90
19224;DHT22;9746;47.180;9.776;2022-11-20T18:42:25;5.30;99.90
19224;DHT22;9746;47.180;9.776;2022-11-20T18:45:10;5.20;99.90
19224;DHT22;9746;47.180;9.776;2022-11-20T18:47:38;5.10;99.90
19224;DHT22;9746;47.180;9.776;2022-11-20T18:50:08;5.20;99.90
19224;DHT22;9746;47.180;9.776;2022-11-20T18:52:40;5.20;99.90
19224;DHT22;9746;47.180;9.776;2022-11-20T18:55:09;5.10;99.90
19224;DHT22;9746;47.180;9.776;2022-11-20T18:57:39;5.10;99.90
19224;DHT22;9746;47.180;9.776;2022-11-20T19:00:08;5.10;99.90
19224;DHT22;9746;47.180;9.776;2022-11-20T19:02:36;5.10;99.90
19224;DHT22;9746;47.180;9.776;2022-11-20T19:05:04;5.00;99.90
19224;DHT22;9746;47.180;9.776;2022-11-20T19:07:42;5.00;99.90
19224;DHT22;9746;47.180;9.776;2022-11-20T19:10:10;4.90;99.90
19224;DHT22;9746;47.180;9.776;2022-11-20T19:12:39;5.00;99.90
19224;DHT22;9746;47.180;9.776;2022-11-20T19:15:07;4.90;99.90
19224;DHT22;9746;47.180;9.776;2022-11-20T19:17:34;4.80;99.90
19224;DHT22;9746;47.180;9.776;2022-11-20T19:20:02;4.80;99.90
19224;DHT22;9746;47.180;9.776;2022-11-20T19:22:32;4.70;99.90
19224;DHT22;9746;47.180;9.776;2022-11-20T19:25:01;4.70;99.90
19224;DHT22;9746;47.180;9.776;2022-11-20T19:27:48;4.60;99.90
19224;DHT22;9746;47.180;9.776;2022-11-20T19:30:15;4.60;99.90
19224;DHT22;9746;47.180;9.776;2022-11-20T19:32:45;4.60;99.90
19224;DHT22;9746;47.180;9.776;2022-11-20T19:35:13;4.60;99.90
19224;DHT22;9746;47.180;9.776;2022-11-20T19:37:40;4.60;99.90
19224;DHT22;9746;47.180;9.776;2022-11-20T19:40:10;4.60;99.90
19224;DHT22;9746;47.180;9.776;2022-11-20T19:42:37;4.60;99.90
19224;DHT22;9746;47.180;9.776;2022-11-20T19:45:07;4.60;99.90
19224;DHT22;9746;47.180;9.776;2022-11-20T19:47:34;4.60;99.90
19224;DHT22;9746;47.180;9.776;2022-11-20T19:50:02;4.50;99.90
19224;DHT22;9746;47.180;9.776;2022-11-20T19:52:33;4.50;99.90
19224;DHT22;9746;47.180;9.776;2022-11-20T19:55:01;4.60;99.90
19224;DHT22;9746;47.180;9.776;2022-11-20T19:57:31;4.60;99.90
19224;DHT22;9746;47.180;9.776;2022-11-20T19:59:58;4.50;99.90
19224;DHT22;9746;47.180;9.776;2022-11-20T20:02:25;4.60;99.90
19224;DHT22;9746;47.180;9.776;2022-11-20T20:04:53;4.50;99.90
19224;DHT22;9746;47.180;9.776;2022-11-20T20:07:21;4.40;99.90
19224;DHT22;9746;47.180;9.776;2022-11-20T20:09:48;4.30;99.90
19224;DHT22;9746;47.180;9.776;2022-11-20T20:12:15;4.20;99.90
19224;DHT22;9746;47.180;9.776;2022-11-20T20:14:44;4.10;99.90
19224;DHT22;9746;47.180;9.776;2022-11-20T20:17:12;4.00;99.90
19224;DHT22;9746;47.180;9.776;2022-11-20T20:19:39;4.10;99.90
19224;DHT22;9746;47.180;9.776;2022-11-20T20:22:06;4.10;99.90
19224;DHT22;9746;47.180;9.776;2022-11-20T20:24:34;4.10;99.90
19224;DHT22;9746;47.180;9.776;2022-11-20T20:27:01;4.20;99.90
19224;DHT22;9746;47.180;9.776;2022-11-20T20:29:29;4.20;99.90
19224;DHT22;9746;47.180;9.776;2022-11-20T20:31:59;4.30;99.90
19224;DHT22;9746;47.180;9.776;2022-11-20T20:34:26;4.30;99.90
19224;DHT22;9746;47.180;9.776;2022-11-20T20:36:56;4.40;99.90
19224;DHT22;9746;47.180;9.776;2022-11-20T20:39:23;4.50;99.90
19224;DHT22;9746;47.180;9.776;2022-11-20T20:41:51;4.50;99.90
19224;DHT22;9746;47.180;9.776;2022-11-20T20:44:18;4.50;99.90
19224;DHT22;9746;47.180;9.776;2022-11-20T20:47:04;4.50;99.90
19224;DHT22;9746;47.180;9.776;2022-11-20T20:49:32;4.50;99.90
19224;DHT22;9746;47.180;9.776;2022-11-20T20:52:00;4.50;99.90
19224;DHT22;9746;47.180;9.776;2022-11-20T20:54:27;4.50;99.90
